createdAt,value
2018-11-29T00:00:35.662Z,17.77
2018-11-29T00:03:07.008Z,18.80
2018-11-29T00:05:37.143Z,17.67
2018-11-29T00:08:07.001Z,19.50
2018-11-29T00:10:36.916Z,17.37
2018-11-29T00:13:06.934Z,17.90
2018-11-29T00:15:36.829Z,16.77
2018-11-29T00:18:06.731Z,17.07
2018-11-29T00:20:36.582Z,18.97
2018-11-29T00:23:06.417Z,17.90
2018-11-29T00:25:36.296Z,17.20
2018-11-29T00:28:06.862Z,17.80
2018-11-29T00:30:36.840Z,16.87
2018-11-29T00:33:06.651Z,16.10
2018-11-29T00:35:36.536Z,16.60
2018-11-29T00:38:06.773Z,16.00
2018-11-29T00:40:36.694Z,16.75
2018-11-29T00:43:06.630Z,17.70
2018-11-29T00:45:36.631Z,17.43
2018-11-29T00:48:06.718Z,16.93
2018-11-29T00:50:37.680Z,16.47
2018-11-29T00:53:07.516Z,16.30
2018-11-29T00:55:37.472Z,14.60
2018-11-29T00:58:07.331Z,15.67
2018-11-29T01:00:37.240Z,19.83
2018-11-29T01:03:07.379Z,18.67
2018-11-29T01:05:37.266Z,17.77
2018-11-29T01:08:07.400Z,18.50
2018-11-29T01:10:37.357Z,16.43
2018-11-29T01:13:07.271Z,17.90
2018-11-29T01:15:37.151Z,18.13
2018-11-29T01:18:07.035Z,17.87
2018-11-29T01:20:37.001Z,18.03
2018-11-29T01:23:07.052Z,16.20
2018-11-29T01:25:36.968Z,19.87
2018-11-29T01:28:06.940Z,18.00
2018-11-29T01:30:36.916Z,20.13
2018-11-29T01:33:07.066Z,19.03
2018-11-29T01:35:37.053Z,17.10
2018-11-29T01:38:06.989Z,17.30
2018-11-29T01:40:36.856Z,20.87
2018-11-29T01:43:07.008Z,17.13
2018-11-29T01:45:36.941Z,18.57
2018-11-29T01:48:06.927Z,17.17
2018-11-29T01:50:36.865Z,20.00
2018-11-29T01:53:07.012Z,20.33
2018-11-29T01:55:36.958Z,18.97
2018-11-29T01:58:07.039Z,19.00
2018-11-29T02:00:36.899Z,17.47
2018-11-29T02:03:07.419Z,18.40
2018-11-29T02:05:37.287Z,17.83
2018-11-29T02:08:07.270Z,20.00
2018-11-29T02:10:42.557Z,20.77
2018-11-29T02:13:12.434Z,20.37
2018-11-29T02:15:42.326Z,18.70
2018-11-29T02:18:12.249Z,17.40
2018-11-29T02:20:42.156Z,21.40
2018-11-29T02:23:12.124Z,17.20
2018-11-29T02:25:42.038Z,19.73
2018-11-29T02:28:11.932Z,17.57
2018-11-29T02:30:41.853Z,18.33
2018-11-29T02:33:11.709Z,17.10
2018-11-29T02:35:41.597Z,18.40
2018-11-29T02:38:11.440Z,16.43
2018-11-29T02:40:41.330Z,16.30
2018-11-29T02:43:11.277Z,20.90
2018-11-29T02:45:41.124Z,17.85
2018-11-29T02:50:50.601Z,21.80
2018-11-29T02:53:20.513Z,17.27
2018-11-29T02:55:50.668Z,20.50
2018-11-29T02:58:20.565Z,17.80
2018-11-29T03:00:50.417Z,19.97
2018-11-29T03:03:20.269Z,18.70
2018-11-29T03:05:50.236Z,18.52
2018-11-29T03:08:20.118Z,16.10
2018-11-29T03:10:50.079Z,19.40
2018-11-29T03:13:19.946Z,17.90
2018-11-29T03:15:49.876Z,18.17
2018-11-29T03:18:19.833Z,15.97
2018-11-29T03:20:49.706Z,17.77
2018-11-29T03:23:19.581Z,18.50
2018-11-29T03:25:49.460Z,16.77
2018-11-29T03:28:19.330Z,16.97
2018-11-29T03:30:49.236Z,18.40
2018-11-29T03:33:19.094Z,17.27
2018-11-29T03:35:48.966Z,16.40
2018-11-29T03:38:18.822Z,19.23
2018-11-29T03:40:48.827Z,16.73
2018-11-29T03:43:18.680Z,16.83
2018-11-29T03:45:48.519Z,18.17
2018-11-29T03:48:18.337Z,20.87
2018-11-29T03:50:48.175Z,19.20
2018-11-29T03:53:17.984Z,18.00
2018-11-29T03:55:47.845Z,16.67
2018-11-29T03:58:17.731Z,15.77
2018-11-29T04:00:47.572Z,17.50
2018-11-29T04:03:17.438Z,17.67
2018-11-29T04:05:47.359Z,15.80
2018-11-29T04:08:17.254Z,16.73
2018-11-29T04:10:47.152Z,15.87
2018-11-29T04:13:17.059Z,18.07
2018-11-29T04:15:47.025Z,15.70
2018-11-29T04:18:16.878Z,14.70
2018-11-29T04:20:46.730Z,15.30
2018-11-29T04:23:16.667Z,17.10
2018-11-29T04:25:46.602Z,14.90
2018-11-29T04:28:16.454Z,16.67
2018-11-29T04:30:46.378Z,14.23
2018-11-29T04:33:16.241Z,13.70
2018-11-29T04:35:46.122Z,15.33
2018-11-29T04:38:16.048Z,14.00
2018-11-29T04:40:45.954Z,14.57
2018-11-29T04:43:15.958Z,14.63
2018-11-29T04:46:03.140Z,15.10
2018-11-29T04:48:33.072Z,15.60
2018-11-29T04:51:02.980Z,13.40
2018-11-29T04:53:32.854Z,13.43
2018-11-29T04:56:02.799Z,13.60
2018-11-29T04:58:32.689Z,14.30
2018-11-29T05:01:02.605Z,17.27
2018-11-29T05:03:32.586Z,11.80
2018-11-29T05:06:02.447Z,11.20
2018-11-29T05:08:32.355Z,15.03
2018-11-29T05:11:02.260Z,16.37
2018-11-29T05:13:32.234Z,13.27
2018-11-29T05:16:02.148Z,15.10
2018-11-29T05:18:32.472Z,18.90
2018-11-29T05:21:01.915Z,13.77
2018-11-29T05:23:31.765Z,13.50
2018-11-29T05:26:01.733Z,15.20
2018-11-29T05:28:31.603Z,15.90
2018-11-29T05:31:01.501Z,15.10
2018-11-29T05:33:31.549Z,15.10
2018-11-29T05:36:01.471Z,16.37
2018-11-29T05:38:31.448Z,14.10
2018-11-29T05:41:01.324Z,14.23
2018-11-29T05:43:31.230Z,14.33
2018-11-29T05:46:01.179Z,12.40
2018-11-29T05:48:31.031Z,13.60
2018-11-29T05:51:01.016Z,14.38
2018-11-29T05:53:30.929Z,15.00
2018-11-29T05:56:00.857Z,14.60
2018-11-29T05:58:30.687Z,15.00
2018-11-29T06:01:03.239Z,16.30
2018-11-29T06:03:33.179Z,16.40
2018-11-29T06:06:03.139Z,12.70
2018-11-29T06:08:32.976Z,13.40
2018-11-29T06:11:02.893Z,14.10
2018-11-29T06:13:32.747Z,14.47
2018-11-29T06:16:02.662Z,15.00
2018-11-29T06:18:32.481Z,15.83
2018-11-29T06:21:03.453Z,13.60
2018-11-29T06:23:33.372Z,15.07
2018-11-29T06:26:03.385Z,16.30
2018-11-29T06:28:33.438Z,13.60
2018-11-29T06:31:03.525Z,16.10
2018-11-29T06:33:33.427Z,13.77
2018-11-29T06:36:03.306Z,16.07
2018-11-29T06:38:33.265Z,15.93
2018-11-29T06:41:03.182Z,16.00
2018-11-29T06:43:33.081Z,16.60
2018-11-29T06:46:03.012Z,16.00
2018-11-29T06:48:32.930Z,14.17
2018-11-29T06:51:02.928Z,17.50
2018-11-29T06:53:38.083Z,15.00
2018-11-29T06:56:07.942Z,15.27
2018-11-29T06:58:37.795Z,14.93
2018-11-29T07:01:07.713Z,15.73
2018-11-29T07:03:37.567Z,14.83
2018-11-29T07:06:08.026Z,15.17
2018-11-29T07:08:37.908Z,14.07
2018-11-29T07:11:07.786Z,16.27
2018-11-29T07:13:37.635Z,15.30
2018-11-29T07:16:07.606Z,14.63
2018-11-29T07:18:37.474Z,14.50
2018-11-29T07:21:24.483Z,15.23
2018-11-29T07:23:54.397Z,15.50
2018-11-29T07:26:24.280Z,15.27
2018-11-29T07:28:54.244Z,16.63
2018-11-29T07:31:24.106Z,14.00
2018-11-29T07:33:54.045Z,17.40
2018-11-29T07:36:23.890Z,16.37
2018-11-29T07:38:53.764Z,16.10
2018-11-29T07:41:23.799Z,18.00
2018-11-29T07:43:53.726Z,16.67
2018-11-29T07:46:23.637Z,16.00
2018-11-29T07:48:53.563Z,15.03
2018-11-29T07:51:23.399Z,15.90
2018-11-29T07:53:53.324Z,16.43
2018-11-29T07:56:23.337Z,16.95
2018-11-29T07:58:53.247Z,16.17
2018-11-29T08:01:23.246Z,16.50
2018-11-29T08:03:53.101Z,18.07
2018-11-29T08:06:22.957Z,17.20
2018-11-29T08:08:52.825Z,16.63
2018-11-29T08:11:22.739Z,18.03
2018-11-29T08:13:52.625Z,15.50
2018-11-29T08:16:22.529Z,16.93
2018-11-29T08:18:52.431Z,13.23
2018-11-29T08:21:22.346Z,15.83
2018-11-29T08:23:52.203Z,18.43
2018-11-29T08:26:22.065Z,14.70
2018-11-29T08:28:51.921Z,16.73
2018-11-29T08:31:21.837Z,15.93
2018-11-29T08:33:51.753Z,16.62
2018-11-29T08:36:21.611Z,15.67
2018-11-29T08:38:51.496Z,13.63
2018-11-29T08:41:21.422Z,15.50
2018-11-29T08:43:51.306Z,15.77
2018-11-29T08:46:21.190Z,14.70
2018-11-29T08:48:51.344Z,15.90
2018-11-29T08:51:21.270Z,18.23
2018-11-29T08:53:51.173Z,16.77
2018-11-29T08:56:21.216Z,16.37
2018-11-29T08:58:51.151Z,14.57
2018-11-29T09:01:21.028Z,16.63
2018-11-29T09:03:50.941Z,16.48
2018-11-29T09:06:20.837Z,13.60
2018-11-29T09:08:50.707Z,18.37
2018-11-29T09:11:20.585Z,16.60
2018-11-29T09:13:50.498Z,19.37
2018-11-29T09:16:20.614Z,17.13
2018-11-29T09:18:50.610Z,14.80
2018-11-29T09:21:20.525Z,15.30
2018-11-29T09:23:50.444Z,16.23
2018-11-29T09:26:20.366Z,15.43
2018-11-29T09:28:50.253Z,18.43
2018-11-29T09:31:20.169Z,16.87
2018-11-29T09:33:50.017Z,14.00
2018-11-29T09:36:19.961Z,17.57
2018-11-29T09:38:49.899Z,15.73
2018-11-29T09:41:19.756Z,16.17
2018-11-29T09:43:49.667Z,16.37
2018-11-29T09:46:19.576Z,16.23
2018-11-29T09:48:49.557Z,16.13
2018-11-29T09:51:19.511Z,17.00
2018-11-29T09:53:49.433Z,14.80
2018-11-29T09:56:20.394Z,16.67
2018-11-29T09:58:50.302Z,17.00
2018-11-29T10:01:20.318Z,15.73
2018-11-29T10:03:50.270Z,14.30
2018-11-29T10:06:20.229Z,14.10
2018-11-29T10:08:51.153Z,15.77
2018-11-29T10:11:21.058Z,12.93
2018-11-29T10:13:50.977Z,13.23
2018-11-29T10:16:20.846Z,17.00
2018-11-29T10:18:50.750Z,17.90
2018-11-29T10:21:20.680Z,16.33
2018-11-29T10:23:50.675Z,17.97
2018-11-29T10:26:21.163Z,14.67
2018-11-29T10:28:51.169Z,18.40
2018-11-29T10:31:21.131Z,16.80
2018-11-29T10:33:51.040Z,17.10
2018-11-29T10:36:20.955Z,18.80
2018-11-29T10:38:50.863Z,14.40
2018-11-29T10:41:20.748Z,17.80
2018-11-29T10:43:50.633Z,16.23
2018-11-29T10:46:20.507Z,15.10
2018-11-29T10:48:50.415Z,18.70
2018-11-29T10:51:20.312Z,14.20
2018-11-29T10:53:50.273Z,15.50
2018-11-29T10:56:20.162Z,14.23
2018-11-29T10:58:50.109Z,13.63
2018-11-29T11:01:25.418Z,14.83
2018-11-29T11:03:55.275Z,16.00
2018-11-29T11:06:25.182Z,13.97
2018-11-29T11:08:55.137Z,15.87
2018-11-29T11:11:25.094Z,15.60
2018-11-29T11:13:54.959Z,15.00
2018-11-29T11:16:25.951Z,14.47
2018-11-29T11:18:56.118Z,16.70
2018-11-29T11:21:25.953Z,14.40
2018-11-29T11:23:59.384Z,16.83
2018-11-29T11:26:25.727Z,15.50
2018-11-29T11:28:55.715Z,14.30
2018-11-29T11:31:31.046Z,17.30
2018-11-29T11:33:55.557Z,13.77
2018-11-29T11:36:25.463Z,13.23
2018-11-29T11:38:55.317Z,14.90
2018-11-29T11:41:25.192Z,14.10
2018-11-29T11:43:55.086Z,14.27
2018-11-29T11:46:24.998Z,12.73
2018-11-29T11:48:54.914Z,15.73
2018-11-29T11:51:24.798Z,13.30
2018-11-29T11:53:54.736Z,15.87
2018-11-29T11:56:24.604Z,16.40
2018-11-29T11:58:54.477Z,12.03
2018-11-29T12:01:24.385Z,13.40
2018-11-29T12:03:54.296Z,13.00
2018-11-29T12:06:24.256Z,13.97
2018-11-29T12:08:54.187Z,13.70
2018-11-29T12:11:24.155Z,13.80
2018-11-29T12:13:56.922Z,11.23
2018-11-29T12:16:26.856Z,14.33
2018-11-29T12:19:02.242Z,13.70
2018-11-29T12:21:26.695Z,14.20
2018-11-29T12:23:56.835Z,14.17
2018-11-29T12:26:26.737Z,13.53
2018-11-29T12:28:56.690Z,13.53
2018-11-29T12:31:26.573Z,11.77
2018-11-29T12:33:56.499Z,12.67
2018-11-29T12:36:26.449Z,13.93
2018-11-29T12:38:56.312Z,12.07
2018-11-29T12:41:26.248Z,13.03
2018-11-29T12:43:56.122Z,13.37
2018-11-29T12:46:26.041Z,14.23
2018-11-29T12:48:55.914Z,13.23
2018-11-29T12:51:25.838Z,13.30
2018-11-29T12:53:55.768Z,14.20
2018-11-29T12:56:25.684Z,13.13
2018-11-29T12:58:55.637Z,13.13
2018-11-29T13:01:25.558Z,12.70
2018-11-29T13:03:55.437Z,10.63
2018-11-29T13:06:25.394Z,12.60
2018-11-29T13:09:03.323Z,13.53
2018-11-29T13:11:33.235Z,13.77
2018-11-29T13:14:03.171Z,13.27
2018-11-29T13:16:33.073Z,13.93
2018-11-29T13:19:02.984Z,14.17
2018-11-29T13:21:32.936Z,12.73
2018-11-29T13:24:02.908Z,12.83
2018-11-29T13:26:32.761Z,14.07
2018-11-29T13:29:02.758Z,13.83
2018-11-29T13:31:32.670Z,12.40
2018-11-29T13:34:02.580Z,13.30
2018-11-29T13:36:32.495Z,13.40
2018-11-29T13:39:02.354Z,13.17
2018-11-29T13:41:32.249Z,15.10
2018-11-29T13:44:02.145Z,12.90
2018-11-29T13:46:32.063Z,12.70
2018-11-29T13:49:01.965Z,16.80
2018-11-29T13:51:31.846Z,15.00
2018-11-29T13:54:01.720Z,14.87
2018-11-29T13:56:31.624Z,13.53
2018-11-29T13:59:01.570Z,13.50
2018-11-29T14:01:31.469Z,12.83
2018-11-29T14:04:01.408Z,12.90
2018-11-29T14:06:31.317Z,12.83
2018-11-29T14:09:01.215Z,12.33
2018-11-29T14:11:31.097Z,12.20
2018-11-29T14:14:01.047Z,12.33
2018-11-29T14:16:30.933Z,14.60
2018-11-29T14:19:00.932Z,13.20
2018-11-29T14:21:30.772Z,11.93
2018-11-29T14:24:00.662Z,13.40
2018-11-29T14:26:30.560Z,13.30
2018-11-29T14:29:00.538Z,13.03
2018-11-29T14:31:30.413Z,13.07
2018-11-29T14:34:00.381Z,12.00
2018-11-29T14:36:30.338Z,12.90
2018-11-29T14:39:00.232Z,13.90
2018-11-29T14:41:30.118Z,14.13
2018-11-29T14:44:00.047Z,14.10
2018-11-29T14:46:29.901Z,14.90
2018-11-29T14:48:59.773Z,13.27
2018-11-29T14:51:29.703Z,12.87
2018-11-29T14:53:59.647Z,11.53
2018-11-29T14:56:29.608Z,13.03
2018-11-29T14:58:59.518Z,13.07
2018-11-29T15:01:29.643Z,14.10
2018-11-29T15:04:01.592Z,13.20
2018-11-29T15:06:31.476Z,14.60
2018-11-29T15:09:01.431Z,12.30
2018-11-29T15:11:31.288Z,12.40
2018-11-29T15:14:01.149Z,11.83
2018-11-29T15:16:31.019Z,12.00
2018-11-29T15:19:00.872Z,12.47
2018-11-29T15:21:30.795Z,12.97
2018-11-29T15:24:00.714Z,12.80
2018-11-29T15:26:30.609Z,11.80
2018-11-29T15:29:00.521Z,13.67
2018-11-29T15:31:30.397Z,13.87
2018-11-29T15:34:00.292Z,10.00
2018-11-29T15:36:30.169Z,12.00
2018-11-29T15:39:00.029Z,13.93
2018-11-29T15:41:29.888Z,11.30
2018-11-29T15:43:59.781Z,12.23
2018-11-29T15:46:29.776Z,11.43
2018-11-29T15:49:00.231Z,10.03
2018-11-29T15:51:29.549Z,12.77
2018-11-29T15:53:59.438Z,12.20
2018-11-29T15:56:29.332Z,11.30
2018-11-29T15:58:59.212Z,8.50
2018-11-29T16:01:29.068Z,9.87
2018-11-29T16:03:59.044Z,9.90
2018-11-29T16:06:28.982Z,10.20
2018-11-29T16:08:58.867Z,10.87
2018-11-29T16:11:28.780Z,10.20
2018-11-29T16:13:58.728Z,10.70
2018-11-29T16:16:28.643Z,11.53
2018-11-29T16:19:03.715Z,10.57
2018-11-29T16:21:28.462Z,12.00
2018-11-29T16:23:58.360Z,11.80
2018-11-29T16:26:28.290Z,11.50
2018-11-29T16:28:58.278Z,10.90
2018-11-29T16:31:28.178Z,9.90
2018-11-29T16:33:58.060Z,10.83
2018-11-29T16:36:27.925Z,10.30
2018-11-29T16:38:57.871Z,11.47
2018-11-29T16:41:27.880Z,11.80
2018-11-29T16:43:57.721Z,11.63
2018-11-29T16:46:27.606Z,11.90
2018-11-29T16:48:57.467Z,11.23
2018-11-29T16:51:27.351Z,11.80
2018-11-29T16:53:57.296Z,11.63
2018-11-29T16:56:27.173Z,10.97
2018-11-29T16:58:57.089Z,11.73
2018-11-29T17:01:26.995Z,11.00
2018-11-29T17:03:56.884Z,10.93
2018-11-29T17:06:26.781Z,12.23
2018-11-29T17:08:56.689Z,10.83
2018-11-29T17:11:26.554Z,10.80
2018-11-29T17:13:56.437Z,10.77
2018-11-29T17:16:26.351Z,10.57
2018-11-29T17:18:56.253Z,11.13
2018-11-29T17:21:26.125Z,10.30
2018-11-29T17:23:56.320Z,10.50
2018-11-29T17:26:26.273Z,10.83
2018-11-29T17:28:56.181Z,11.67
2018-11-29T17:31:26.067Z,10.00
2018-11-29T17:33:55.947Z,11.43
2018-11-29T17:36:25.796Z,10.77
2018-11-29T17:38:55.781Z,9.97
2018-11-29T17:41:25.651Z,10.00
2018-11-29T17:43:55.532Z,10.93
2018-11-29T17:46:25.410Z,10.30
2018-11-29T17:48:55.273Z,11.60
2018-11-29T17:51:25.139Z,11.17
2018-11-29T17:53:55.243Z,10.97
2018-11-29T17:56:25.125Z,10.40
2018-11-29T17:58:55.059Z,11.33
2018-11-29T18:01:25.068Z,11.43
2018-11-29T18:03:55.013Z,11.10
2018-11-29T18:06:24.889Z,9.77
2018-11-29T18:08:54.802Z,10.13
2018-11-29T18:11:24.680Z,10.40
2018-11-29T18:13:54.646Z,10.30
2018-11-29T18:16:24.487Z,9.47
2018-11-29T18:18:54.417Z,10.37
2018-11-29T18:21:24.314Z,9.60
2018-11-29T18:23:54.364Z,10.00
2018-11-29T18:26:24.250Z,10.40
2018-11-29T18:28:54.378Z,8.77
2018-11-29T18:31:24.231Z,10.73
2018-11-29T18:33:54.168Z,8.17
2018-11-29T18:36:25.068Z,9.47
2018-11-29T18:38:55.025Z,9.70
2018-11-29T18:41:25.006Z,9.80
2018-11-29T18:43:54.998Z,9.93
2018-11-29T18:46:24.861Z,8.70
2018-11-29T18:48:54.746Z,9.23
2018-11-29T18:51:24.705Z,11.17
2018-11-29T18:53:55.193Z,10.07
2018-11-29T18:56:25.222Z,11.80
2018-11-29T18:58:55.142Z,8.80
2018-11-29T19:01:25.029Z,10.17
2018-11-29T19:03:54.982Z,10.30
2018-11-29T19:06:24.923Z,9.40
2018-11-29T19:08:55.195Z,11.13
2018-11-29T19:11:25.182Z,10.97
2018-11-29T19:13:55.071Z,8.80
2018-11-29T19:16:25.004Z,11.23
2018-11-29T19:18:54.892Z,14.13
2018-11-29T19:21:24.894Z,12.23
2018-11-29T19:23:54.841Z,11.53
2018-11-29T19:26:24.803Z,9.80
2018-11-29T19:28:54.671Z,11.20
2018-11-29T19:31:24.671Z,11.33
2018-11-29T19:33:54.623Z,10.17
2018-11-29T19:36:25.582Z,11.17
2018-11-29T19:38:55.457Z,10.17
2018-11-29T19:41:25.425Z,10.03
2018-11-29T19:43:55.287Z,11.27
2018-11-29T19:46:25.166Z,10.03
2018-11-29T19:48:55.037Z,9.37
2018-11-29T19:51:25.000Z,10.50
2018-11-29T19:53:54.888Z,11.80
2018-11-29T19:56:24.817Z,10.73
2018-11-29T19:58:54.725Z,12.00
2018-11-29T20:01:24.657Z,10.60
2018-11-29T20:03:54.500Z,11.77
2018-11-29T20:06:24.586Z,13.10
2018-11-29T20:08:54.605Z,11.53
2018-11-29T20:11:24.605Z,11.50
2018-11-29T20:13:54.580Z,9.73
2018-11-29T20:16:24.649Z,11.70
2018-11-29T20:18:54.549Z,11.53
2018-11-29T20:21:24.579Z,12.17
2018-11-29T20:23:54.508Z,11.97
2018-11-29T20:26:24.410Z,13.00
2018-11-29T20:28:54.288Z,11.37
2018-11-29T20:31:24.190Z,11.90
2018-11-29T20:33:54.106Z,13.07
2018-11-29T20:36:24.159Z,12.20
2018-11-29T20:38:54.733Z,13.57
2018-11-29T20:41:24.680Z,12.47
2018-11-29T20:43:55.021Z,11.37
2018-11-29T20:46:25.039Z,11.73
2018-11-29T20:48:54.879Z,11.20
2018-11-29T20:51:25.042Z,12.00
2018-11-29T20:53:54.909Z,12.53
2018-11-29T20:56:24.834Z,12.23
2018-11-29T20:58:54.914Z,12.23
2018-11-29T21:01:24.869Z,11.73
2018-11-29T21:03:54.836Z,13.50
2018-11-29T21:06:24.883Z,12.70
2018-11-29T21:08:56.108Z,11.37
2018-11-29T21:11:26.148Z,11.20
2018-11-29T21:13:58.210Z,11.33
2018-11-29T21:16:28.053Z,10.37
2018-11-29T21:18:57.987Z,11.80
2018-11-29T21:21:27.861Z,12.90
2018-11-29T21:23:57.755Z,10.40
2018-11-29T21:26:27.634Z,9.23
2018-11-29T21:28:57.517Z,10.93
2018-11-29T21:31:27.408Z,11.77
2018-11-29T21:33:57.350Z,10.70
2018-11-29T21:36:27.245Z,11.43
2018-11-29T21:38:57.159Z,10.60
2018-11-29T21:41:30.330Z,10.97
2018-11-29T21:44:03.655Z,11.00
2018-11-29T21:46:34.206Z,10.33
2018-11-29T21:49:04.149Z,12.33
2018-11-29T21:51:37.802Z,11.07
2018-11-29T21:54:07.663Z,12.33
2018-11-29T21:56:37.531Z,11.30
2018-11-29T21:59:07.498Z,13.00
2018-11-29T22:01:37.372Z,11.67
2018-11-29T22:04:07.235Z,11.20
2018-11-29T22:06:37.102Z,10.00
2018-11-29T22:09:07.939Z,10.93
2018-11-29T22:11:37.799Z,11.80
2018-11-29T22:14:07.723Z,11.57
2018-11-29T22:16:37.706Z,8.90
2018-11-29T22:19:07.667Z,10.57
2018-11-29T22:21:37.492Z,9.77
2018-11-29T22:24:07.374Z,11.50
2018-11-29T22:26:37.248Z,9.83
2018-11-29T22:29:07.089Z,8.87
2018-11-29T22:31:36.959Z,11.33
2018-11-29T22:34:07.153Z,11.10
2018-11-29T22:36:37.069Z,11.10
2018-11-29T22:39:09.833Z,10.20
2018-11-29T22:41:39.719Z,8.97
2018-11-29T22:44:09.587Z,11.53
2018-11-29T22:46:39.465Z,10.80
2018-11-29T22:49:09.355Z,11.80
2018-11-29T22:51:39.204Z,11.27
2018-11-29T22:54:09.054Z,9.20
2018-11-29T22:56:38.909Z,9.30
2018-11-29T22:59:08.809Z,10.43
2018-11-29T23:01:38.720Z,10.00
2018-11-29T23:04:08.614Z,8.93
2018-11-29T23:06:38.532Z,9.13
2018-11-29T23:09:10.009Z,8.57
2018-11-29T23:11:40.021Z,9.97
2018-11-29T23:14:09.898Z,10.50
2018-11-29T23:16:39.772Z,11.60
2018-11-29T23:19:09.659Z,9.60
2018-11-29T23:21:39.544Z,10.30
2018-11-29T23:24:09.406Z,9.80
2018-11-29T23:26:39.274Z,10.50
2018-11-29T23:29:09.146Z,11.37
2018-11-29T23:31:39.047Z,9.80
2018-11-29T23:34:08.943Z,10.47
2018-11-29T23:36:38.825Z,9.17
2018-11-29T23:39:09.168Z,9.40
2018-11-29T23:41:39.067Z,10.13
2018-11-29T23:44:08.967Z,10.50
2018-11-29T23:46:38.867Z,9.40
2018-11-29T23:49:08.741Z,9.10
2018-11-29T23:51:38.660Z,7.90
2018-11-29T23:54:08.562Z,8.90
2018-11-29T23:56:38.481Z,8.97
2018-11-29T23:59:08.366Z,10.47
